»·PEaware :: N843SC KOXR-F70

N843SC :: KOXR-F70

FLIGHT INFORMATION

Flight Status: Arrived
Operator: Privately registered:
United States
More flights under this callsign
Pilot: Elliott T. (30246)
Aircraft: MOONEY M-20 201 202 205 220 ATS MSE
(M20P)
More flights by this aircraft type
Origin: KOXR Oxnard
United States
Destination: F70 French Valley
United States
More flights between these airports :: More routes between these airports
Route:
File this flight plan on PilotEdge
Remarks: Coliseum Route
Altitude:
(Current/Filed)
9,500ft
Speed:
(Current/Filed)
120kts
Departed: 06-Feb-21 07:38 PM
Arrived: 06-Feb-21 08:31 PM
Distance/Time
Traveled:
110nm/0:53
Distance/Time
To Go:
Arrived

Flight Plot

Page will automatically refresh every two minutes.

Flight plan parsing failed; only flown route is shown


Map Options




Map Legend


Flown Route
Filed Route
Departure Airport
Arrival Airport
Navaid (VOR, NDB)
Fix

Horizontal Profiles

Position Reports

Time Latitude Longitude Heading Altitude Ground
Speed
06-Feb-21 19:17 34.199326 -119.205797 180 45ft 0kts
06-Feb-21 19:18 34.199326 -119.205797 180 45ft 0kts
06-Feb-21 19:19 34.199326 -119.205797 180 45ft 0kts
06-Feb-21 19:20 34.199326 -119.205797 180 45ft 0kts
06-Feb-21 19:21 34.199326 -119.205797 180 45ft 0kts
06-Feb-21 19:22 34.199326 -119.205797 180 45ft 0kts
06-Feb-21 19:23 34.199326 -119.205797 180 45ft 0kts
06-Feb-21 19:24 34.199326 -119.205797 180 45ft 0kts
06-Feb-21 19:25 34.199326 -119.205797 180 45ft 0kts
06-Feb-21 19:26 34.199326 -119.205797 180 45ft 0kts
06-Feb-21 19:27 34.199326 -119.205797 180 45ft 0kts
06-Feb-21 19:28 34.199326 -119.205797 180 45ft 0kts
06-Feb-21 19:29 34.199313 -119.205640 15 46ft 0kts
06-Feb-21 19:30 34.199868 -119.205072 92 48ft 9kts
06-Feb-21 19:31 34.199749 -119.199258 92 43ft 22kts
06-Feb-21 19:32 34.199729 -119.197814 81 43ft 0kts
06-Feb-21 19:33 34.199729 -119.197814 81 43ft 0kts
06-Feb-21 19:34 34.199900 -119.197580 23 43ft 0kts
06-Feb-21 19:35 34.199900 -119.197580 23 43ft 0kts
06-Feb-21 19:36 34.200433 -119.197546 353 43ft 12kts
06-Feb-21 19:37 34.200752 -119.217054 269 530ft 92kts
06-Feb-21 19:38 34.220756 -119.214211 71 1456ft 136kts
06-Feb-21 19:39 34.231321 -119.169248 73 2449ft 143kts
06-Feb-21 19:40 34.233392 -119.121002 92 3443ft 146kts
06-Feb-21 19:41 34.231924 -119.073956 89 4490ft 135kts
06-Feb-21 19:42 34.231222 -119.030994 90 5673ft 125kts
06-Feb-21 19:43 34.230678 -118.990272 90 6872ft 117kts
06-Feb-21 19:44 34.230098 -118.950928 90 8076ft 120kts
06-Feb-21 19:45 34.229528 -118.910787 89 9266ft 119kts
06-Feb-21 19:47 34.228863 -118.864543 89 9549ft 153kts
06-Feb-21 19:48 34.228092 -118.811079 90 9560ft 162kts
06-Feb-21 19:49 34.227314 -118.758653 90 9536ft 145kts
06-Feb-21 19:50 34.226630 -118.711542 90 9543ft 138kts
06-Feb-21 19:51 34.225969 -118.665808 90 9539ft 135kts
06-Feb-21 19:52 34.225314 -118.620552 90 9540ft 135kts
06-Feb-21 19:53 34.224769 -118.575456 90 9539ft 134kts
06-Feb-21 19:54 34.224493 -118.530495 89 9540ft 134kts
06-Feb-21 19:55 34.214840 -118.488965 125 9541ft 134kts
06-Feb-21 19:56 34.188378 -118.455785 141 9547ft 148kts
06-Feb-21 19:57 34.155018 -118.422255 140 9542ft 161kts
06-Feb-21 19:58 34.120555 -118.387513 139 9537ft 162kts
06-Feb-21 19:58 34.091718 -118.358429 139 9539ft 163kts
06-Feb-21 20:00 34.052309 -118.318634 139 9538ft 163kts
06-Feb-21 20:01 34.021757 -118.287812 139 9541ft 163kts
06-Feb-21 20:01 33.993517 -118.259345 139 9548ft 163kts
06-Feb-21 20:03 33.952775 -118.218307 139 9549ft 164kts
06-Feb-21 20:03 33.923373 -118.188741 139 9549ft 164kts
06-Feb-21 20:04 33.888414 -118.153598 139 9540ft 165kts
06-Feb-21 20:06 33.847187 -118.112151 139 9540ft 165kts
06-Feb-21 20:06 33.818063 -118.082934 139 9540ft 165kts
06-Feb-21 20:07 33.783362 -118.047623 138 9540ft 166kts
06-Feb-21 20:08 33.747705 -118.011913 137 9533ft 167kts
06-Feb-21 20:10 33.709307 -117.966007 134 9538ft 167kts
06-Feb-21 20:10 33.682123 -117.933346 134 9539ft 167kts
06-Feb-21 20:11 33.649254 -117.893991 134 9539ft 167kts
06-Feb-21 20:12 33.616319 -117.854570 134 9540ft 167kts
06-Feb-21 20:13 33.583273 -117.815053 134 9538ft 167kts
06-Feb-21 20:14 33.550428 -117.775807 134 9538ft 166kts
06-Feb-21 20:15 33.517634 -117.736643 134 9541ft 167kts
06-Feb-21 20:16 33.484479 -117.697063 132 9538ft 167kts
06-Feb-21 20:17 33.488149 -117.645445 71 9543ft 164kts
06-Feb-21 20:18 33.498255 -117.592156 82 9539ft 164kts
06-Feb-21 20:19 33.506790 -117.538297 78 9538ft 164kts
06-Feb-21 20:20 33.515544 -117.485051 78 9594ft 163kts
06-Feb-21 20:21 33.524345 -117.431872 79 9288ft 155kts
06-Feb-21 20:22 33.532631 -117.381695 79 8268ft 150kts
06-Feb-21 20:23 33.540373 -117.334806 80 7270ft 136kts
06-Feb-21 20:24 33.547537 -117.291323 80 6271ft 129kts
06-Feb-21 20:25 33.543033 -117.249244 102 5280ft 127kts
06-Feb-21 20:26 33.535302 -117.207673 102 4304ft 128kts
06-Feb-21 20:27 33.527467 -117.165907 102 3301ft 129kts
06-Feb-21 20:28 33.535664 -117.134142 354 2380ft 124kts
06-Feb-21 20:29 33.566653 -117.130437 13 1363ft 95kts
06-Feb-21 20:30 33.580709 -117.126785 11 1351ft 23kts
06-Feb-21 20:31 33.581316 -117.127768 267 1351ft 0kts

Navigation Log

Ident Type
Flight plan parsing failed, navigation log unavailable